Time;durP1;ratioP1;P1;durP2;ratioP2;P2;SDS_P1;SDS_P2;PMS_P1;PMS_P2;Temp;Humidity;BMP_temperature;BMP_pressure;BME280_temperature;BME280_humidity;BME280_pressure;Samples;Min_cycle;Max_cycle;Signal;HPM_P1;HPM_P2
2022/10/08 00:13:07;;;;;;;16.90;14.60;;;15.30;99.90;;;;;;5953849;24;20414;-83
2022/10/08 00:42:21;;;;;;;16.03;14.17;;;14.80;99.90;;;;;;5906911;23;20464;-83
2022/10/08 00:48:59;;;;;;;15.23;13.93;;;14.70;99.90;;;;;;5948165;24;20470;-83
2022/10/08 00:52:00;;;;;;;16.40;14.70;;;14.70;99.90;;;;;;5842553;24;20464;-83
2022/10/08 00:57:56;;;;;;;16.57;14.90;;;14.70;99.90;;;;;;5930780;24;20449;-83
2022/10/08 01:00:25;;;;;;;14.53;13.13;;;14.70;99.90;;;;;;5934849;24;20477;-83
2022/10/08 01:02:52;;;;;;;18.37;15.30;;;14.70;99.90;;;;;;6078089;23;20414;-83
2022/10/08 01:05:26;;;;;;;16.00;14.50;;;14.80;99.90;;;;;;6195504;23;20527;-83
2022/10/08 01:08:00;;;;;;;16.33;14.87;;;14.80;99.90;;;;;;6196538;23;20430;-83
2022/10/08 01:10:33;;;;;;;17.80;14.30;;;14.60;99.90;;;;;;6196150;23;20903;-83
2022/10/08 01:13:11;;;;;;;16.27;13.87;;;14.60;99.90;;;;;;6197114;23;20390;-83
2022/10/08 01:15:48;;;;;;;16.07;14.47;;;14.70;99.90;;;;;;6195525;23;20464;-83
2022/10/08 01:18:23;;;;;;;17.27;15.63;;;14.60;99.90;;;;;;6196022;23;20526;-83
2022/10/08 01:21:02;;;;;;;15.30;13.90;;;14.70;99.90;;;;;;6196067;23;20395;-83
2022/10/08 01:24:07;;;;;;;15.23;12.77;;;14.80;99.90;;;;;;6195910;23;20509;-83
2022/10/08 01:26:46;;;;;;;15.97;14.50;;;14.80;99.90;;;;;;6196319;23;20930;-83
2022/10/08 01:29:19;;;;;;;15.07;13.47;;;14.80;99.90;;;;;;6196312;23;20413;-83
2022/10/08 01:31:51;;;;;;;14.33;13.13;;;14.80;99.90;;;;;;6196186;23;20403;-82
2022/10/08 01:34:23;;;;;;;14.70;13.20;;;14.80;99.90;;;;;;6196920;23;20458;-81
2022/10/08 01:36:53;;;;;;;13.97;12.57;;;14.80;99.90;;;;;;6195155;23;20774;-83
2022/10/08 01:39:22;;;;;;;15.57;13.93;;;14.90;99.90;;;;;;6195515;23;20509;-84
2022/10/08 01:41:55;;;;;;;15.33;12.53;;;14.90;99.90;;;;;;6196425;23;20414;-82
2022/10/08 01:44:27;;;;;;;16.23;14.77;;;14.90;99.90;;;;;;6207186;23;20432;-81
2022/10/08 01:46:58;;;;;;;15.90;14.30;;;14.90;99.90;;;;;;6206647;23;20519;-81
2022/10/08 01:49:28;;;;;;;14.77;13.07;;;14.80;99.90;;;;;;6198758;23;20727;-83
2022/10/08 01:51:59;;;;;;;16.67;13.57;;;14.80;99.90;;;;;;6187302;23;20487;-83
2022/10/08 01:54:29;;;;;;;14.93;13.53;;;14.80;99.90;;;;;;6166613;23;20775;-83
2022/10/08 01:56:58;;;;;;;14.83;13.33;;;14.80;99.90;;;;;;6166684;23;20430;-84
2022/10/08 01:59:31;;;;;;;14.73;13.53;;;15.00;99.90;;;;;;6165996;23;20535;-83
2022/10/08 02:02:05;;;;;;;14.20;12.57;;;15.00;99.90;;;;;;6166741;23;20414;-83
2022/10/08 02:04:36;;;;;;;15.20;13.87;;;15.00;99.90;;;;;;6166394;23;20459;-83
2022/10/08 02:07:06;;;;;;;14.17;12.90;;;15.10;99.90;;;;;;6165903;23;20437;-84
2022/10/08 02:09:35;;;;;;;15.73;14.13;;;15.10;99.90;;;;;;6165384;23;20400;-83
2022/10/08 02:12:02;;;;;;;13.93;12.67;;;15.00;99.90;;;;;;6166250;23;20737;-83
2022/10/08 02:14:31;;;;;;;17.00;15.20;;;15.10;99.90;;;;;;6166000;23;20416;-83
2022/10/08 02:17:05;;;;;;;16.07;14.37;;;15.10;99.90;;;;;;6166638;23;20431;-83
2022/10/08 02:19:44;;;;;;;13.37;12.20;;;15.10;99.90;;;;;;6165746;23;20397;-84
2022/10/08 02:22:13;;;;;;;13.60;12.30;;;15.20;99.90;;;;;;6166715;23;20395;-83
2022/10/08 02:24:43;;;;;;;13.87;12.47;;;15.10;99.90;;;;;;6166620;23;20531;-83
2022/10/08 02:27:12;;;;;;;15.00;13.60;;;15.20;99.90;;;;;;6167977;23;20461;-83
2022/10/08 02:29:44;;;;;;;13.63;12.40;;;15.20;99.90;;;;;;6167752;23;20412;-83
2022/10/08 02:32:18;;;;;;;13.40;12.20;;;15.20;99.90;;;;;;6167768;23;20392;-83
2022/10/08 02:34:48;;;;;;;14.23;12.63;;;15.10;99.90;;;;;;6167215;23;20932;-83
2022/10/08 02:37:19;;;;;;;18.67;13.30;;;15.10;99.90;;;;;;6167831;23;20436;-83
2022/10/08 02:39:53;;;;;;;15.60;14.00;;;15.00;99.90;;;;;;6167795;23;20394;-83
2022/10/08 02:42:22;;;;;;;13.63;12.23;;;15.00;99.90;;;;;;6168485;23;20412;-84
2022/10/08 02:44:56;;;;;;;14.87;13.47;;;15.00;99.90;;;;;;6167564;23;20477;-83
2022/10/08 02:47:27;;;;;;;15.83;12.63;;;14.90;99.90;;;;;;6167085;23;20511;-84
2022/10/08 02:50:00;;;;;;;13.53;12.20;;;14.80;99.90;;;;;;6167914;23;20467;-83
2022/10/08 02:52:30;;;;;;;12.87;11.57;;;15.00;99.90;;;;;;6166752;23;20482;-84
2022/10/08 02:55:00;;;;;;;13.03;11.90;;;14.80;99.90;;;;;;6166909;23;20413;-83
2022/10/08 02:57:33;;;;;;;14.00;12.70;;;14.70;99.90;;;;;;6167216;23;20454;-84
2022/10/08 03:00:01;;;;;;;19.50;15.70;;;14.80;99.90;;;;;;6167525;23;20480;-84
2022/10/08 03:02:35;;;;;;;16.20;14.30;;;14.80;99.90;;;;;;6167439;23;20411;-83
2022/10/08 03:05:05;;;;;;;13.67;12.13;;;14.80;99.90;;;;;;6167466;23;20431;-83
2022/10/08 03:07:33;;;;;;;12.97;11.67;;;14.80;99.90;;;;;;6176169;23;20439;-84
2022/10/08 03:10:04;;;;;;;13.63;12.43;;;14.90;99.90;;;;;;6167713;23;20440;-84
2022/10/08 03:12:31;;;;;;;13.50;12.10;;;14.90;99.90;;;;;;6166488;23;20409;-83
2022/10/08 03:14:59;;;;;;;14.60;12.10;;;14.90;99.90;;;;;;6167548;23;20403;-83
2022/10/08 03:17:41;;;;;;;13.97;12.53;;;14.70;99.90;;;;;;6167599;23;20808;-84
2022/10/08 03:20:10;;;;;;;13.97;12.70;;;14.80;99.90;;;;;;6167298;23;20399;-83
2022/10/08 03:22:38;;;;;;;14.80;13.40;;;14.70;99.90;;;;;;6167936;23;20416;-83
2022/10/08 03:25:05;;;;;;;14.23;12.27;;;14.60;99.90;;;;;;6167695;23;20767;-84
2022/10/08 03:27:33;;;;;;;15.97;13.30;;;14.50;99.90;;;;;;6166732;23;20444;-84
2022/10/08 03:30:01;;;;;;;14.47;12.97;;;14.50;99.90;;;;;;6167234;23;20403;-83
2022/10/08 03:32:29;;;;;;;13.03;11.73;;;14.50;99.90;;;;;;6167371;23;20412;-83
2022/10/08 03:34:56;;;;;;;14.03;12.73;;;14.40;99.90;;;;;;6167334;23;20407;-83
2022/10/08 03:37:23;;;;;;;14.00;12.13;;;14.40;99.90;;;;;;6168354;23;20433;-84
2022/10/08 03:39:50;;;;;;;15.23;11.97;;;14.40;99.90;;;;;;6168023;23;20411;-83
2022/10/08 03:42:16;;;;;;;14.27;12.90;;;14.40;99.90;;;;;;6168223;23;20481;-83
2022/10/08 03:44:43;;;;;;;13.03;11.63;;;14.40;99.90;;;;;;6167424;23;20454;-84
2022/10/08 03:47:10;;;;;;;13.60;12.30;;;14.40;99.90;;;;;;6173297;23;20657;-81
2022/10/08 03:49:38;;;;;;;12.70;11.23;;;14.30;99.90;;;;;;6171054;23;20434;-84
2022/10/08 03:52:05;;;;;;;12.43;11.33;;;14.40;99.90;;;;;;6167060;23;20487;-83
2022/10/08 03:54:34;;;;;;;13.30;12.10;;;14.30;99.90;;;;;;6166873;23;20413;-82
2022/10/08 03:57:01;;;;;;;14.30;11.37;;;14.30;99.90;;;;;;6167148;23;20485;-83
2022/10/08 03:59:28;;;;;;;12.63;11.23;;;14.40;99.90;;;;;;6166826;23;20502;-83
2022/10/08 04:01:55;;;;;;;12.07;10.77;;;14.40;99.90;;;;;;6171543;23;20412;-83
2022/10/08 04:04:21;;;;;;;12.03;10.90;;;14.40;99.90;;;;;;6173957;23;20541;-83
2022/10/08 04:06:50;;;;;;;11.87;10.70;;;14.50;99.90;;;;;;6167806;23;20439;-83
2022/10/08 04:09:16;;;;;;;11.63;10.40;;;14.50;99.90;;;;;;6167634;23;20408;-83
2022/10/08 04:11:43;;;;;;;12.90;11.50;;;14.50;99.90;;;;;;6167446;23;20491;-84
2022/10/08 04:14:10;;;;;;;12.00;11.00;;;14.50;99.90;;;;;;6166001;23;20479;-83
2022/10/08 04:16:37;;;;;;;11.53;10.13;;;14.40;99.90;;;;;;6168826;23;20503;-83
2022/10/08 04:19:03;;;;;;;11.37;10.37;;;14.40;99.90;;;;;;6166827;23;20415;-83
2022/10/08 04:21:31;;;;;;;12.90;11.33;;;14.40;99.90;;;;;;6167610;23;20498;-84
2022/10/08 04:23:59;;;;;;;13.17;11.77;;;14.50;99.90;;;;;;6166446;23;20411;-83
2022/10/08 04:26:26;;;;;;;11.63;10.37;;;14.30;99.90;;;;;;6166150;23;20477;-83
2022/10/08 04:28:53;;;;;;;11.70;10.07;;;14.30;99.90;;;;;;6166457;23;20978;-84
2022/10/08 04:31:22;;;;;;;11.73;10.73;;;14.30;99.90;;;;;;6167855;23;20411;-83
2022/10/08 04:33:50;;;;;;;12.20;11.10;;;14.40;99.90;;;;;;6168150;23;20479;-84
2022/10/08 04:36:19;;;;;;;12.23;10.87;;;14.40;99.90;;;;;;6167845;23;20427;-84
2022/10/08 08:14:55;;;;;;;3.40;2.70;;;15.50;99.90;;;;;;6223157;22;20500;-85
2022/10/08 08:17:22;;;;;;;4.47;3.70;;;15.50;99.90;;;;;;6231153;23;20426;-85
2022/10/08 08:19:52;;;;;;;3.33;3.03;;;15.40;99.90;;;;;;6232431;23;20426;-87
2022/10/08 08:22:19;;;;;;;4.00;3.33;;;15.40;99.90;;;;;;6233113;23;20397;-85
2022/10/08 08:24:46;;;;;;;3.70;3.40;;;15.40;99.90;;;;;;6231351;23;20433;-85
2022/10/08 08:27:17;;;;;;;4.70;3.87;;;15.30;99.90;;;;;;6230120;23;20433;-84
2022/10/08 08:29:44;;;;;;;3.57;3.17;;;15.30;99.90;;;;;;6229782;23;20390;-86
2022/10/08 08:32:16;;;;;;;5.33;3.90;;;15.40;99.90;;;;;;6230216;23;20473;-85
2022/10/08 08:34:44;;;;;;;4.43;3.23;;;15.40;99.90;;;;;;6230625;23;20721;-84
2022/10/08 08:37:10;;;;;;;3.20;2.77;;;15.40;99.90;;;;;;6230569;23;20439;-85
2022/10/08 08:39:39;;;;;;;5.50;3.43;;;15.50;99.90;;;;;;6228489;23;20433;-84
2022/10/08 08:42:39;;;;;;;4.83;2.93;;;15.60;99.90;;;;;;6215337;23;20967;-83
2022/10/08 08:45:24;;;;;;;3.10;2.90;;;15.80;99.90;;;;;;6195462;23;20451;-84
2022/10/08 08:47:59;;;;;;;3.87;2.90;;;15.80;99.90;;;;;;6220583;23;20462;-84
2022/10/08 08:50:29;;;;;;;3.67;2.80;;;15.80;99.90;;;;;;6219357;23;20414;-84
2022/10/08 08:52:57;;;;;;;5.53;3.13;;;15.70;99.90;;;;;;6221998;23;20401;-83
2022/10/08 08:55:33;;;;;;;4.07;3.20;;;15.80;99.90;;;;;;6222355;23;20795;-86
2022/10/08 08:58:08;;;;;;;6.03;3.00;;;15.90;99.90;;;;;;6222886;23;20433;-84
2022/10/08 09:00:42;;;;;;;3.60;2.93;;;15.90;99.90;;;;;;6223869;23;20396;-84
2022/10/08 09:03:20;;;;;;;4.60;3.20;;;15.90;99.90;;;;;;6222657;23;20386;-84
2022/10/08 09:05:50;;;;;;;4.50;2.83;;;16.00;99.90;;;;;;6224876;23;20429;-82
2022/10/08 09:08:38;;;;;;;5.03;3.80;;;16.00;99.90;;;;;;6232069;23;20459;-84
2022/10/08 09:11:05;;;;;;;2.90;2.60;;;16.10;99.90;;;;;;6220581;23;20394;-86
2022/10/08 09:13:39;;;;;;;3.47;3.20;;;16.10;99.90;;;;;;6223150;23;20414;-85
2022/10/08 09:16:06;;;;;;;4.03;2.70;;;16.10;99.90;;;;;;6222188;23;20413;-84
2022/10/08 09:18:34;;;;;;;8.40;3.53;;;16.20;99.90;;;;;;6217854;23;20937;-85
2022/10/08 09:21:02;;;;;;;3.13;2.93;;;16.10;99.90;;;;;;6220607;23;20414;-84
2022/10/08 09:23:29;;;;;;;5.43;3.50;;;16.10;99.90;;;;;;6220917;23;20413;-84
2022/10/08 09:26:00;;;;;;;4.57;2.87;;;16.10;99.90;;;;;;6222483;23;20457;-84
2022/10/08 09:28:41;;;;;;;5.40;2.70;;;16.10;99.90;;;;;;6221540;23;20430;-84
2022/10/08 09:31:25;;;;;;;2.87;2.63;;;16.00;99.90;;;;;;6220886;23;20756;-84
2022/10/08 09:34:00;;;;;;;3.67;2.60;;;16.10;99.90;;;;;;6227111;23;20395;-85
2022/10/08 09:36:30;;;;;;;5.23;3.00;;;16.20;99.90;;;;;;6226329;23;20394;-84
2022/10/08 09:39:06;;;;;;;6.17;2.90;;;16.30;99.90;;;;;;6224448;23;20433;-85
2022/10/08 09:41:41;;;;;;;2.53;2.20;;;16.50;99.90;;;;;;6225408;23;20467;-85
2022/10/08 09:44:18;;;;;;;3.90;2.93;;;16.70;99.70;;;;;;6225848;23;20410;-84
2022/10/08 09:56:36;;;;;;;9.93;2.80;;;17.40;98.30;;;;;;6163069;23;20894;-85
2022/10/08 10:02:53;;;;;;;3.93;2.37;;;17.40;98.00;;;;;;6131217;23;20565;-81
2022/10/08 10:05:27;;;;;;;3.30;3.00;;;17.30;98.20;;;;;;6133378;23;20435;-84
2022/10/08 10:07:54;;;;;;;3.03;2.77;;;17.30;98.40;;;;;;6219002;23;20533;-83
2022/10/08 10:10:26;;;;;;;4.40;4.07;;;17.30;98.40;;;;;;6224236;23;20416;-84
2022/10/08 10:12:56;;;;;;;4.07;3.40;;;17.20;98.50;;;;;;6225233;23;20758;-82
2022/10/08 10:15:29;;;;;;;3.33;3.00;;;17.10;98.50;;;;;;6225012;23;20419;-83
2022/10/08 10:18:03;;;;;;;5.67;3.20;;;17.10;98.30;;;;;;6224508;23;20434;-83
2022/10/08 10:20:47;;;;;;;4.97;3.30;;;17.10;98.00;;;;;;6221615;23;20418;-82
2022/10/08 10:23:18;;;;;;;3.97;3.50;;;17.10;98.10;;;;;;6225207;23;20478;-83
2022/10/08 10:25:53;;;;;;;4.90;2.47;;;17.10;97.50;;;;;;6225701;23;20431;-85
2022/10/08 10:28:57;;;;;;;3.30;3.00;;;17.20;97.80;;;;;;6224013;23;20515;-85
2022/10/08 10:31:47;;;;;;;3.83;2.50;;;17.20;99.90;;;;;;6227068;23;20724;-84
2022/10/08 10:34:18;;;;;;;6.93;3.90;;;17.20;99.20;;;;;;6227547;23;20479;-85
2022/10/08 10:36:51;;;;;;;6.70;2.83;;;17.10;97.60;;;;;;6224106;23;20389;-82
2022/10/08 10:39:43;;;;;;;5.10;3.03;;;17.10;97.00;;;;;;6226248;23;20424;-83
2022/10/08 10:42:22;;;;;;;4.47;2.43;;;17.20;97.30;;;;;;6222193;23;20415;-85
2022/10/08 10:44:53;;;;;;;3.37;2.50;;;17.40;96.70;;;;;;6208150;22;20491;-86
2022/10/08 10:47:22;;;;;;;5.67;3.47;;;18.00;96.70;;;;;;6192556;23;20437;-83
2022/10/08 10:49:50;;;;;;;3.60;3.23;;;18.50;95.10;;;;;;6192397;23;20414;-82
2022/10/08 10:52:44;;;;;;;9.17;3.17;;;18.90;94.30;;;;;;6192884;23;20417;-83
2022/10/08 10:55:23;;;;;;;7.80;2.80;;;19.40;93.00;;;;;;6194086;23;20434;-83
2022/10/08 10:58:16;;;;;;;5.23;2.77;;;19.30;91.90;;;;;;6193046;23;20423;-83
2022/10/08 11:00:51;;;;;;;3.93;2.50;;;18.80;91.70;;;;;;6182779;23;20436;-84
2022/10/08 11:03:25;;;;;;;5.00;2.50;;;18.50;92.70;;;;;;6192713;23;20404;-84
2022/10/08 11:05:57;;;;;;;4.50;3.13;;;18.50;93.10;;;;;;6193576;23;20430;-85
2022/10/08 11:08:35;;;;;;;5.17;3.47;;;18.60;93.00;;;;;;6193239;23;20391;-84
2022/10/08 11:11:16;;;;;;;6.77;2.80;;;18.60;92.50;;;;;;6193065;23;20407;-84
2022/10/08 11:13:55;;;;;;;7.20;3.43;;;18.90;92.40;;;;;;6193549;23;20394;-84
2022/10/08 11:16:38;;;;;;;4.10;1.93;;;19.60;92.20;;;;;;6193651;23;20390;-84
2022/10/08 11:19:11;;;;;;;2.37;2.17;;;20.40;91.00;;;;;;6192295;23;20404;-86
2022/10/08 11:21:50;;;;;;;2.90;2.43;;;20.80;88.80;;;;;;6189283;23;20783;-81
2022/10/08 11:24:39;;;;;;;5.70;2.40;;;21.10;87.50;;;;;;6190527;23;20440;-81
2022/10/08 11:27:12;;;;;;;6.53;4.40;;;21.60;85.20;;;;;;6190423;23;20432;-80
2022/10/08 11:29:45;;;;;;;9.00;2.87;;;21.70;82.60;;;;;;6190356;23;20419;-81
2022/10/08 11:32:14;;;;;;;7.13;6.17;;;21.60;80.70;;;;;;6191890;23;20400;-82
2022/10/08 11:34:49;;;;;;;4.27;3.23;;;21.80;82.70;;;;;;6191376;23;20438;-82
2022/10/08 11:37:24;;;;;;;5.00;2.57;;;21.60;80.40;;;;;;6191910;23;20732;-81
2022/10/08 11:40:02;;;;;;;5.30;2.43;;;20.90;80.20;;;;;;6190472;23;20408;-81
2022/10/08 11:42:34;;;;;;;2.80;2.47;;;20.40;81.20;;;;;;6190796;23;20399;-81
2022/10/08 11:45:29;;;;;;;4.13;3.37;;;20.60;82.90;;;;;;6208979;23;20441;-81
2022/10/08 11:47:56;;;;;;;4.60;3.10;;;21.20;81.90;;;;;;6208840;23;20423;-80
2022/10/08 11:50:30;;;;;;;5.57;2.43;;;21.90;79.90;;;;;;6220322;23;20409;-80
2022/10/08 11:53:13;;;;;;;3.33;2.03;;;22.60;77.50;;;;;;6221522;23;20723;-84
2022/10/08 11:55:49;;;;;;;5.37;2.53;;;23.10;74.80;;;;;;6222515;23;20434;-85
2022/10/08 11:58:25;;;;;;;2.23;1.63;;;23.20;72.70;;;;;;6220472;23;20891;-83
2022/10/08 12:01:00;;;;;;;7.43;2.53;;;23.70;71.70;;;;;;6223343;23;20421;-86
2022/10/08 12:03:31;;;;;;;4.30;2.80;;;23.10;69.60;;;;;;6221012;23;20423;-86
2022/10/08 12:05:59;;;;;;;7.30;2.20;;;22.80;70.20;;;;;;6222568;23;20428;-85
2022/10/08 12:08:50;;;;;;;3.30;1.83;;;22.80;70.60;;;;;;6224013;23;20405;-86
2022/10/08 12:11:58;;;;;;;3.53;3.33;;;22.20;71.80;;;;;;6222155;23;20451;-83
2022/10/08 12:14:32;;;;;;;3.60;2.33;;;22.10;73.40;;;;;;6207551;23;20441;-82
2022/10/08 12:17:10;;;;;;;2.80;2.00;;;22.20;73.40;;;;;;6218686;23;20399;-82
2022/10/08 12:20:28;;;;;;;3.97;1.93;;;22.30;72.10;;;;;;6217877;23;20738;-82
2022/10/08 12:23:03;;;;;;;4.47;2.63;;;22.20;72.90;;;;;;6207719;23;20736;-82
2022/10/08 12:25:37;;;;;;;6.80;4.63;;;22.50;72.50;;;;;;6218488;23;20433;-82
2022/10/08 12:28:41;;;;;;;3.50;2.00;;;23.00;71.50;;;;;;6218634;23;20393;-82
2022/10/08 12:31:38;;;;;;;2.20;2.00;;;23.50;70.90;;;;;;6217850;23;20408;-82
2022/10/08 12:34:16;;;;;;;3.30;2.20;;;23.70;67.90;;;;;;6217641;23;20481;-82
2022/10/08 12:37:00;;;;;;;4.43;2.10;;;23.30;67.70;;;;;;6217969;23;20386;-83
2022/10/08 12:39:36;;;;;;;4.90;1.97;;;23.30;67.70;;;;;;6217695;23;20418;-82
2022/10/08 12:42:12;;;;;;;2.70;2.03;;;22.80;67.10;;;;;;6218479;23;20397;-81
2022/10/08 12:44:47;;;;;;;3.40;2.60;;;22.80;69.30;;;;;;6218018;23;20439;-83
2022/10/08 12:47:25;;;;;;;4.03;2.73;;;22.90;67.40;;;;;;6217839;23;20433;-83
2022/10/08 12:49:56;;;;;;;2.33;2.13;;;22.20;67.90;;;;;;6217361;23;20410;-83
2022/10/08 12:52:24;;;;;;;2.53;2.30;;;21.10;68.10;;;;;;6217719;23;21033;-82
2022/10/08 12:54:53;;;;;;;3.37;2.10;;;20.50;73.30;;;;;;6217624;23;20944;-83
2022/10/08 12:57:23;;;;;;;4.57;2.43;;;19.80;76.90;;;;;;6218541;23;20412;-82
2022/10/08 12:59:51;;;;;;;4.83;2.60;;;19.20;79.70;;;;;;6219554;23;20399;-84
2022/10/08 13:02:36;;;;;;;6.90;2.07;;;19.10;81.00;;;;;;6222144;23;20423;-85
2022/10/08 13:05:04;;;;;;;2.90;2.07;;;19.00;81.00;;;;;;6223747;23;20456;-85
2022/10/08 13:07:33;;;;;;;8.03;2.97;;;18.60;80.70;;;;;;6226262;23;20455;-81
2022/10/08 13:10:01;;;;;;;3.17;2.93;;;18.00;80.70;;;;;;6226958;23;20914;-86
2022/10/08 13:12:28;;;;;;;2.37;1.90;;;17.30;81.30;;;;;;6226186;23;20408;-84
2022/10/08 13:15:00;;;;;;;3.80;2.17;;;17.30;83.20;;;;;;6224413;23;20440;-85
2022/10/08 13:17:30;;;;;;;2.30;1.93;;;17.80;81.90;;;;;;6224444;23;20414;-85
2022/10/08 13:20:06;;;;;;;6.00;1.77;;;18.40;80.90;;;;;;6223750;23;20408;-85
2022/10/08 13:22:33;;;;;;;2.97;2.33;;;19.40;79.90;;;;;;6225110;23;20397;-85
2022/10/08 13:25:02;;;;;;;1.73;1.63;;;20.10;77.30;;;;;;6224119;23;20425;-85
2022/10/08 13:27:30;;;;;;;3.43;2.20;;;20.40;76.40;;;;;;6224831;23;20443;-83
2022/10/08 13:29:57;;;;;;;3.50;2.20;;;20.70;76.20;;;;;;6223977;23;20766;-83
2022/10/08 13:32:26;;;;;;;2.73;1.53;;;20.90;75.20;;;;;;6224546;23;20495;-85
2022/10/08 13:34:57;;;;;;;3.40;2.20;;;21.00;75.30;;;;;;6223316;23;20444;-85
2022/10/08 13:37:31;;;;;;;2.80;2.07;;;21.40;75.70;;;;;;6222174;23;20398;-82
2022/10/08 13:39:59;;;;;;;5.40;1.20;;;22.10;72.50;;;;;;6223345;23;20395;-85
2022/10/08 13:49:36;;;;;;;4.10;1.50;;;23.30;68.20;;;;;;6127933;23;20434;-84
2022/10/08 14:05:35;;;;;;;2.40;2.00;;;20.10;73.20;;;;;;6111269;23;20430;-84
2022/10/08 14:08:05;;;;;;;1.90;1.60;;;20.10;75.20;;;;;;6189779;23;20518;-85
2022/10/08 14:10:32;;;;;;;2.83;1.67;;;19.90;75.80;;;;;;6193227;23;20416;-82
2022/10/08 14:12:59;;;;;;;5.20;1.70;;;19.50;76.70;;;;;;6191704;23;20441;-85
2022/10/08 14:15:26;;;;;;;2.10;1.10;;;19.00;79.40;;;;;;6188890;23;20435;-85
2022/10/08 14:17:53;;;;;;;3.13;1.80;;;18.50;80.30;;;;;;6188140;23;20409;-82
2022/10/08 14:20:21;;;;;;;4.37;1.77;;;18.20;81.10;;;;;;6191501;23;20463;-82
2022/10/08 14:22:50;;;;;;;3.50;2.07;;;17.80;82.60;;;;;;6194271;23;20413;-83
2022/10/08 14:25:22;;;;;;;5.70;1.43;;;17.60;84.00;;;;;;6194051;23;20497;-84
2022/10/08 14:27:49;;;;;;;2.80;1.77;;;17.70;85.10;;;;;;6192948;23;20512;-84
2022/10/08 14:30:16;;;;;;;2.37;1.40;;;17.90;85.80;;;;;;6194086;23;20412;-84
2022/10/08 14:32:44;;;;;;;4.27;1.90;;;18.10;84.40;;;;;;6193731;23;20443;-84
2022/10/08 14:35:12;;;;;;;1.57;1.23;;;18.20;83.70;;;;;;6194622;23;20436;-84
2022/10/08 14:37:39;;;;;;;2.43;1.50;;;18.30;82.40;;;;;;6194194;23;20413;-80
2022/10/08 14:40:11;;;;;;;2.90;1.40;;;18.40;82.60;;;;;;6195308;23;20420;-84
2022/10/08 14:42:37;;;;;;;2.33;1.77;;;18.40;83.40;;;;;;6194468;23;20398;-84
2022/10/08 14:45:05;;;;;;;3.30;1.50;;;18.40;83.70;;;;;;6207428;23;20522;-84
2022/10/08 14:47:32;;;;;;;2.60;1.30;;;18.40;83.70;;;;;;6223700;23;20447;-84
2022/10/08 14:49:58;;;;;;;2.33;1.30;;;18.30;85.10;;;;;;6224024;23;20405;-85
2022/10/08 14:52:25;;;;;;;2.60;1.23;;;18.20;85.70;;;;;;6224410;23;20416;-84
2022/10/08 14:54:52;;;;;;;1.70;1.47;;;18.40;86.40;;;;;;6225197;23;20447;-84
2022/10/08 14:57:20;;;;;;;1.23;1.00;;;18.50;85.80;;;;;;6225716;23;20409;-85
2022/10/08 14:59:47;;;;;;;2.53;0.80;;;18.70;84.80;;;;;;6224768;23;20412;-85
2022/10/08 15:02:15;;;;;;;2.77;1.73;;;18.60;82.90;;;;;;6224672;23;20469;-84
2022/10/08 15:04:42;;;;;;;2.10;1.30;;;18.40;82.10;;;;;;6224094;23;20938;-84
2022/10/08 15:07:08;;;;;;;1.13;0.80;;;18.20;83.60;;;;;;6224902;23;21061;-84
2022/10/08 15:09:36;;;;;;;2.37;1.60;;;18.10;84.30;;;;;;6226756;23;20409;-85
2022/10/08 15:12:02;;;;;;;2.63;1.93;;;18.00;85.20;;;;;;6224935;23;20916;-85
2022/10/08 15:14:31;;;;;;;2.20;1.33;;;17.90;85.90;;;;;;6225156;23;20490;-84
2022/10/08 15:16:59;;;;;;;1.47;1.37;;;17.70;86.70;;;;;;6223284;23;20408;-82
2022/10/08 15:19:26;;;;;;;1.50;1.40;;;17.70;86.60;;;;;;6222978;23;20405;-83
2022/10/08 15:21:53;;;;;;;7.30;3.13;;;17.80;87.20;;;;;;6223445;23;20422;-84
2022/10/08 15:24:19;;;;;;;1.70;1.20;;;17.60;87.70;;;;;;6223418;23;20753;-84
2022/10/08 15:26:46;;;;;;;5.10;1.30;;;17.70;88.90;;;;;;6223492;23;20470;-82
2022/10/08 15:29:13;;;;;;;1.90;1.40;;;17.60;89.30;;;;;;6223649;23;20416;-84
2022/10/08 15:31:41;;;;;;;2.73;1.07;;;17.60;90.10;;;;;;6222978;23;20418;-85
2022/10/08 15:34:15;;;;;;;1.23;1.23;;;17.70;90.30;;;;;;6223351;23;20436;-85
2022/10/08 15:36:42;;;;;;;1.50;1.40;;;17.60;90.40;;;;;;6222596;23;20805;-85
2022/10/08 15:39:11;;;;;;;2.07;1.30;;;17.50;90.90;;;;;;6221731;23;20418;-84
2022/10/08 15:41:40;;;;;;;2.13;1.00;;;17.30;90.80;;;;;;6223043;23;20412;-84
2022/10/08 15:44:09;;;;;;;1.97;1.20;;;17.30;90.80;;;;;;6225796;23;20435;-80
2022/10/08 15:46:36;;;;;;;2.40;1.30;;;17.20;90.80;;;;;;6239290;23;20432;-80
2022/10/08 15:49:05;;;;;;;1.40;1.30;;;17.20;91.50;;;;;;6236189;23;20438;-84
2022/10/08 15:51:32;;;;;;;1.67;1.30;;;17.10;91.20;;;;;;6224980;23;20501;-84
2022/10/08 15:53:59;;;;;;;2.30;2.10;;;17.00;91.60;;;;;;6224249;23;20432;-85
2022/10/08 15:56:34;;;;;;;2.73;1.30;;;17.00;91.70;;;;;;6224187;23;20909;-85
2022/10/08 15:59:01;;;;;;;2.50;2.20;;;16.90;92.00;;;;;;6222582;23;20433;-86
2022/10/08 16:01:28;;;;;;;3.20;1.63;;;16.80;92.20;;;;;;6222772;23;20414;-84
2022/10/08 16:07:22;;;;;;;1.50;1.40;;;16.60;92.40;;;;;;6110942;23;20949;-83
2022/10/08 16:09:49;;;;;;;1.63;1.30;;;16.40;92.50;;;;;;6167867;23;20422;-85
2022/10/08 16:12:16;;;;;;;1.27;1.17;;;16.30;92.80;;;;;;6218236;23;20450;-83
2022/10/08 16:14:43;;;;;;;1.93;1.73;;;16.20;93.10;;;;;;6218366;23;20434;-83
2022/10/08 16:17:10;;;;;;;0.97;0.90;;;16.20;93.40;;;;;;6218399;23;20411;-83
2022/10/08 16:19:36;;;;;;;2.57;1.20;;;16.10;93.60;;;;;;6216607;23;20405;-85
2022/10/08 16:22:04;;;;;;;1.00;1.00;;;16.00;93.80;;;;;;6217988;23;20409;-84
2022/10/08 16:24:32;;;;;;;1.97;1.77;;;16.00;94.20;;;;;;6220517;23;20768;-85
2022/10/08 16:26:59;;;;;;;1.53;1.13;;;16.00;94.50;;;;;;6223402;23;21023;-85
2022/10/08 16:29:26;;;;;;;2.60;1.50;;;15.90;94.60;;;;;;6223103;23;20431;-84
2022/10/08 16:31:52;;;;;;;6.40;5.80;;;15.80;94.80;;;;;;6223500;23;20409;-85
2022/10/08 16:34:21;;;;;;;3.27;2.37;;;15.80;95.20;;;;;;6223358;23;20433;-85
2022/10/08 16:36:48;;;;;;;1.87;1.77;;;15.80;95.50;;;;;;6223844;23;20493;-85
2022/10/08 16:39:20;;;;;;;2.00;1.90;;;15.60;95.60;;;;;;6224024;23;20445;-85
2022/10/08 16:41:49;;;;;;;1.77;1.50;;;15.60;96.10;;;;;;6223750;23;20405;-85
2022/10/08 17:33:00;;;;;;;;;;;;;;;;;;;;;
2022/10/08 18:36:11;;;;;;;5.83;4.40;;;12.70;99.90;;;;;;6229173;22;20451;-82
2022/10/08 18:38:38;;;;;;;6.17;5.53;;;12.70;99.90;;;;;;6226866;23;20859;-80
2022/10/08 18:41:12;;;;;;;7.77;4.80;;;12.70;99.90;;;;;;6227594;23;20477;-80
2022/10/08 18:43:39;;;;;;;5.80;4.20;;;12.60;99.90;;;;;;6229099;23;20408;-80
2022/10/08 18:46:06;;;;;;;10.30;5.97;;;12.50;99.90;;;;;;6230097;23;20719;-79
2022/10/08 18:48:34;;;;;;;5.23;4.77;;;12.40;99.90;;;;;;6223229;23;20448;-81
2022/10/08 18:51:05;;;;;;;5.67;5.17;;;12.40;99.90;;;;;;6218780;23;20424;-81
2022/10/08 18:53:35;;;;;;;6.80;6.10;;;12.50;99.90;;;;;;6219114;23;20401;-82
2022/10/08 18:56:02;;;;;;;6.90;5.97;;;12.50;99.90;;;;;;6219413;23;20413;-80
2022/10/08 18:58:29;;;;;;;7.70;6.40;;;12.50;99.90;;;;;;6218792;23;20432;-81
2022/10/08 19:00:56;;;;;;;8.40;6.50;;;12.50;99.90;;;;;;6221412;23;20487;-81
2022/10/08 19:03:25;;;;;;;8.13;7.30;;;12.50;99.90;;;;;;6222416;23;20409;-84
2022/10/08 19:05:52;;;;;;;6.30;5.70;;;12.50;99.90;;;;;;6223969;23;20776;-81
2022/10/08 19:08:19;;;;;;;7.30;6.60;;;12.40;99.90;;;;;;6223233;23;20962;-84
2022/10/08 19:10:48;;;;;;;8.20;6.80;;;12.40;99.90;;;;;;6222856;23;20420;-82
2022/10/08 19:13:15;;;;;;;5.50;4.57;;;12.40;99.90;;;;;;6223530;23;20408;-81
2022/10/08 19:15:42;;;;;;;5.63;4.83;;;12.30;99.90;;;;;;6223418;23;20439;-83
2022/10/08 19:18:09;;;;;;;6.40;5.90;;;12.30;99.90;;;;;;6223566;23;20494;-84
2022/10/08 19:20:36;;;;;;;5.67;5.17;;;12.30;99.90;;;;;;6222855;23;20472;-83
2022/10/08 19:23:04;;;;;;;6.20;5.47;;;12.10;99.90;;;;;;6223745;23;20420;-82
2022/10/08 19:25:33;;;;;;;10.33;7.27;;;12.20;99.90;;;;;;6222894;23;20744;-83
2022/10/08 19:28:01;;;;;;;7.07;6.37;;;12.20;99.90;;;;;;6223098;23;20503;-84
2022/10/08 19:30:32;;;;;;;6.40;5.80;;;12.10;99.90;;;;;;6224055;23;20427;-83
2022/10/08 19:32:59;;;;;;;6.03;5.37;;;12.00;99.90;;;;;;6224398;23;20400;-83
2022/10/08 19:35:28;;;;;;;6.47;5.90;;;12.00;99.90;;;;;;6223507;23;20947;-84
2022/10/08 19:37:55;;;;;;;7.10;6.60;;;11.90;99.90;;;;;;6224052;23;20429;-84
2022/10/08 19:40:36;;;;;;;7.50;6.83;;;11.90;99.90;;;;;;6222827;23;20496;-84
2022/10/08 19:43:04;;;;;;;6.10;5.60;;;11.90;99.90;;;;;;6223975;23;20465;-83
2022/10/08 19:45:34;;;;;;;7.57;5.67;;;11.90;99.90;;;;;;6223839;23;20511;-84
2022/10/08 19:48:00;;;;;;;7.70;6.40;;;11.90;99.90;;;;;;6223352;23;20951;-84
2022/10/08 19:50:27;;;;;;;6.53;5.90;;;11.90;99.90;;;;;;6223796;23;20503;-82
2022/10/08 19:52:54;;;;;;;7.03;6.33;;;11.80;99.90;;;;;;6223862;23;20416;-83
2022/10/08 19:55:21;;;;;;;8.87;6.07;;;11.80;99.90;;;;;;6223755;23;20429;-83